• Join FlightAware (Why Join?)
  • Login
  • US Flag 
10:11PM EDT


 

Airport Tracker/Info


-or-


 

Live Flight TrackerFlight Track Log ✈ SWA2894 ✈ 09-Jun-2013 ✈ KOAK - KLAX

Flight Track Log - Related Links

Times and Time Zones

All times are in EDT time to prevent confusion due to time zone crossing. See the SWA2894 flight status page for this flight to view local times or setup timezone preferences in your user account.

Time Position Orientation Groundspeed Altitude Reporting Facility
EDT Latitude Longitude Course Direction KTS MPH feet Rate Location/Type
12:07PM 37.7167 -122.2333 310° West 146 168 1,000  Level Northern Cal TRACON
12:08PM 37.7500 -122.2833 310° West 214 246 3,700 3,240 Climbing Northern Cal TRACON
12:09PM 37.7667 -122.3500 288° West 242 278 7,200 3,000 Climbing Northern Cal TRACON
12:10PM 37.6864 -122.3406 175° South 252 290 11,100 2,340 Climbing Oakland Center
12:11PM 37.6500 -122.3000 139° Southeast 339 390 11,900 2,340 Climbing Northern Cal TRACON
12:11PM 37.6097 -122.2475 134° Southeast 324 373 13,500 3,120 Climbing Oakland Center
12:12PM 37.5386 -122.1631 137° Southeast 349 402 16,900 2,640 Climbing Oakland Center
12:13PM 37.4675 -122.0764 136° Southeast 355 409 19,000 1,020 Climbing Oakland Center
12:14PM 37.3939 -121.9908 137° Southeast 360 414 19,000 540 Level Oakland Center
12:15PM 37.3203 -121.9028 136° Southeast 365 420 20,100 1,800 Climbing Oakland Center
12:16PM 37.2311 -121.7961 136° Southeast 418 481 22,800 2,580 Climbing Oakland Center
12:17PM 37.1447 -121.6956 137° Southeast 425 489 25,500 2,400 Climbing Oakland Center
12:18PM 37.0614 -121.5989 137° Southeast 432 497 27,800 2,340 Climbing Oakland Center
12:19PM 36.9747 -121.4972 137° Southeast 429 494 30,400 2,520 Climbing Oakland Center
12:20PM 36.8722 -121.3736 136° Southeast 428 493 33,000 2,220 Climbing Oakland Center
12:21PM 36.7819 -121.2719 138° Southeast 427 491 35,000 2,040 Climbing Oakland Center
12:22PM 36.6961 -121.1717 137° Southeast 424 488 37,200 1,680 Climbing Oakland Center
12:23PM 36.6139 -121.0731 136° Southeast 413 475 38,500 1,020 Climbing Oakland Center
12:24PM 36.5267 -120.9761 138° Southeast 420 483 39,300 1,020 Climbing Oakland Center
12:25PM 36.4400 -120.8750 137° Southeast 427 491 40,700 780 Climbing Oakland Center
12:26PM 36.3547 -120.7761 137° Southeast 422 486 41,000 120 Climbing Oakland Center
12:28PM 36.2678 -120.6783 138° Southeast 422 486 41,000 -60 Level Oakland Center
12:29PM 36.1806 -120.5789 137° Southeast 424 488 40,900  Descending Oakland Center
12:30PM 36.0936 -120.4797 137° Southeast 425 489 41,000  Climbing Oakland Center
12:31PM 36.0058 -120.3817 138° Southeast 426 490 41,000  Level Oakland Center
12:32PM 35.9008 -120.2614 137° Southeast 427 491 41,000  Level Oakland Center
12:33PM 35.8125 -120.1636 138° Southeast 425 489 41,000  Level Oakland Center
12:34PM 35.7247 -120.0650 138° Southeast 424 488 41,000  Level Oakland Center
12:35PM 35.6353 -119.9667 138° Southeast 427 491 41,000  Level Oakland Center
12:36PM 35.5383 -119.8844 145° Southeast 424 488 41,000  Level Los Angeles Center
12:37PM 35.4400 -119.7978 144° Southeast 426 490 41,000  Level Oakland Center
12:38PM 35.3422 -119.7153 145° Southeast 426 490 41,000  Level Oakland Center
12:39PM 35.2439 -119.6311 145° Southeast 428 493 41,000  Level Oakland Center
12:40PM 35.1458 -119.5472 145° Southeast 429 494 41,000 -1,080 Level Oakland Center
12:41PM 35.0483 -119.4647 145° Southeast 427 491 38,800 -2,640 Descending Oakland Center
12:42PM 34.9519 -119.3836 145° Southeast 422 486 35,700 -3,120 Descending Oakland Center
12:43PM 34.8592 -119.3028 144° Southeast 416 479 32,500 -3,660 Descending Oakland Center
12:44PM 34.7483 -119.2097 145° Southeast 407 468 28,300 -3,540 Descending Oakland Center
12:45PM 34.6519 -119.1281 145° Southeast 413 475 25,300 -2,880 Descending Oakland Center
12:46PM 34.5408 -119.0367 146° Southeast 406 467 21,700 -3,300 Descending Los Angeles Center
12:47PM 34.4492 -118.9594 145° Southeast 404 465 17,800 -2,580 Descending Los Angeles Center
12:48PM 34.3633 -118.8875 145° Southeast 378 435 16,400 -1,740 Descending Los Angeles Center
12:49PM 34.2600 -118.8464 162° South 327 376 14,300 -2,100 Descending Los Angeles Center
12:50PM 34.1753 -118.8147 163° South 320 368 12,100 -1,500 Descending Los Angeles Center
12:51PM 34.0972 -118.7867 163° South 295 339 11,200 -1,020 Descending Los Angeles Center
12:52PM 34.0567 -118.7094 122° Southeast 269 310 10,000 -900 Descending Los Angeles Center
12:53PM 34.0403 -118.6225 103° East 268 308 9,400 -1,080 Descending Los Angeles Center
12:54PM 34.0231 -118.5286 102° East 267 307 7,800 -1,320 Descending Los Angeles Center
12:55PM 34.0125 -118.4419 98° East 258 297 6,700 -1,020 Descending Los Angeles Center
12:56PM 34.0233 -118.3558 81° East 260 299 5,700 -1,020 Descending Los Angeles Center
12:58PM 34.0344 -118.2744 81° East 250 288 4,600 -1,020 Descending Los Angeles Center
12:59PM 34.0458 -118.1972 80° East 239 275 3,600 -1,200 Descending Los Angeles Center
01:00PM 34.0061 -118.1781 158° South 224 258 2,200 -720 Descending Los Angeles Center
01:01PM 33.9769 -118.2350 238° Southwest 200 230 2,200 -300 Level Los Angeles Center
01:02PM 33.9631 -118.3014 256° West 174 200 1,700 -600 Descending Los Angeles Center
01:03PM 33.9583 -118.3478 263° West 154 177 1,000 -660 Descending Los Angeles Center
01:04PM 33.9536 -118.3947 263° West 146 168 300 -600 Descending Los Angeles Center
01:06PM 33.9333 -118.4000 228° Southwest  Level FlightAware Approximate
01:13PM 33.9425 -118.4081 228° Southwest  Level Estimated